Карточка аэропорта UUYY

Внимание!
Информация на этой странице в стадии наполнения.
Если вы не увидели какой-то информации, или заметили неточность - пожалуйста сообщите нам!
Спасибо!
Команда RU-STAFF
Название аэропортаСыктывкар
Название аэропорта (англ.)Syktyvkar
Превышение339 ft. (103.3 m.)
Координаты61°38.502', 50°50.298'
Высота перехода3000 feet
Эшелон переходаQNH>=1013hPa:FL040; QNH<1013hPa:FL050; QNH<977hPa:FL060
Коды ответчика3130-3134, 5752-5757, 5770-5777, 6701-6717
Зона ОрВДСанкт-Петербург РПИ (ULLL)
Данные METARUUYY 130037Z 22002MPS 0250 0150SW R18/0375N FG VV002 16/16 Q1013 R18/CLRD61 NOSIG RMK QBB060 QFE751/1001
Проноз погоды (TAF)UUYY 122135Z 1221/1321 20003G12MPS 0200 FG BKN003 BKN017CB TEMPO 1221/1301 0500 -TSRA FG BKN001 BKN016CB FM130100 20003G12MPS 6000 BKN017CB TEMPO 1301/1303 0300 -TSRA FG BKN002 BKN016CB TEMPO 1303/1321 21005G14MPS -TSRA BKN016CB
NOTAMshow/hide NOTAM
AWOS   TABLE

Информация о ВПП

ВПП Длина ВПП (м.) Покрытие Курс ВПП Частота ILS
012500Асфальтобетон6108.3
192500Асфальтобетон186111.7

Диспетчерские позиции

Позывной Наименование органа УВД Частота
UUYY_TWRСивкар-Старт124.600
UUYY_R_APPСивкар-Круг124.600



Спутниковое изображение